Terminal Aerodrome Forecast
Issued by NWS

Home | Current Version | Previous Version | Text Only | Print | Product List | Glossary On
Versions: 1 2 3 4 5 6 7 8 9 10 11 12
593
FTUS46 KSGX 211734
TAFTRM
TAF
KTRM 211734Z 2118/2218 VRB06KT P6SM SKC
     FM212000 14010KT P6SM SCT150
     FM220000 VRB06KT P6SM SCT150
     FM220500 33010KT P6SM SKC
     FM220800 VRB06KT P6SM SKC=

USA.gov is the U.S. government's official web portal to all federal, state and local government web resources and services.